Vuilleumier, Laurent (2010): Meteorological synoptical observations from station Payerne (2009-05) [dataset]. Swiss Meteorological Agency, Payerne, PANGAEA, https://doi.org/10.1594/PANGAEA.735245
Always quote citation above when using data! You can download the citation in several formats below.
Published: 2010-03-19 • DOI registered: 2010-04-16
Other version:
Vuilleumier, Laurent (2010): BSRN Station-to-archive file for station Payerne (2009-05) [dataset]. ftp://ftp.bsrn.awi.de/pay/pay0509.dat.gz
Project(s):
Coverage:
Latitude: 46.812300 * Longitude: 6.942200
Date/Time Start: 2009-05-01T00:00:00 * Date/Time End: 2009-05-31T21:00:00
Minimum Elevation: 491.0 m * Maximum Elevation: 491.0 m
Event(s):
PAY (Payerne) * Latitude: 46.812300 * Longitude: 6.942200 * Date/Time: 1992-09-01T00:00:00 * Elevation: 491.0 m * Location: Switzerland * Method/Device: Monitoring station (MONS) * Comment: BSRN station no: 21; Surface type: cultivated; Topography type: hilly, rural; Horizon: doi:10.1594/PANGAEA.947035; Station scientist: Laurent Vuilleumier (laurent.vuilleumier@meteoswiss.ch)
Parameter(s):
| # | Name | Short Name | Unit | Principal Investigator | Method/Device | Comment |
|---|---|---|---|---|---|---|
| 1 | DATE/TIME | Date/Time | Geocode | |||
| 2 | Wind direction | dd | deg | Vuilleumier, Laurent | Anemometer | |
| 3 | Wind speed | ff | m/s | Vuilleumier, Laurent | Anemometer | |
| 4 | Temperature, air | TTT | °C | Vuilleumier, Laurent | Thermometer | |
| 5 | Dew/frost point | TdTdTd | °C | Vuilleumier, Laurent | Hygrometer (HYGRO) | |
| 6 | Station pressure | PoPoPoPo | hPa | Vuilleumier, Laurent | Barometer (BARO) | |
| 7 | Pressure, atmospheric | PPPP | hPa | Vuilleumier, Laurent | Barometer (BARO) | |
| 8 | Code | Code | Vuilleumier, Laurent | YYGG9 iRixhVV Nddff 1SnTTT 2SnTdTdTd 3P0P0P0 4PPPP 7wwW1W2 8NhClCmCh 333 8NsChshs 8NsChshs 8NsChshs |
License:
Size:
1736 data points
Data
| 1 Date/Time | 2 dd [deg] | 3 ff [m/s] | 4 TTT [°C] | 5 TdTdTd [°C] | 6 PoPoPoPo [hPa] | 7 PPPP [hPa] | 8 Code |
|---|---|---|---|---|---|---|---|
| 2009-05-01T00:00 | 290 | 1 | 5.9 | 3.9 | 961 | 1020 | 01009 44/// /2901 10059 20039 39608 40199 7//// 8//// 333 8//// 8//// 8//// |
| 2009-05-01T03:00 | 190 | 2 | 3.3 | 2.6 | 961 | 1020 | 01039 44/// /1902 10033 20026 39609 40205 7//// 8//// 333 8//// 8//// 8//// |
| 2009-05-01T06:00 | 100 | 1 | 4.0 | 3.1 | 962 | 1022 | 01069 44/// /1001 10040 20031 39624 40220 7//// 8//// 333 8//// 8//// 8//// |
| 2009-05-01T09:00 | 50 | 4 | 12.3 | 6.7 | 964 | 1021 | 01099 44/// /0504 10123 20067 39635 40213 7//// 8//// 333 8//// 8//// 8//// |
| 2009-05-01T12:00 | 60 | 5 | 16.3 | 7.3 | 964 | 1020 | 01129 44/// /0605 10163 20073 39635 40205 7//// 8//// 333 8//// 8//// 8//// |
| 2009-05-01T15:00 | 30 | 6 | 17.9 | 5.6 | 964 | 1020 | 01159 44/// /0306 10179 20056 39636 40202 7//// 8//// 333 8//// 8//// 8//// |
| 2009-05-01T18:00 | 50 | 3 | 16.3 | 6.1 | 965 | 1022 | 01189 44/// /0503 10163 20061 39646 40216 7//// 8//// 333 8//// 8//// 8//// |
| 2009-05-01T21:00 | 190 | 1 | 9.3 | 7.1 | 966 | 1025 | 01219 44/// /1901 10093 20071 39665 40251 7//// 8//// 333 8//// 8//// 8//// |
| 2009-05-02T00:00 | 200 | 2 | 7.7 | 6.0 | 967 | 1026 | 02009 44/// /2002 10077 20060 39670 40260 7//// 8//// 333 8//// 8//// 8//// |
| 2009-05-02T03:00 | 40 | 0 | 6.4 | 5.7 | 967 | 1027 | 02039 44/// /0400 10064 20057 39674 40267 7//// 8//// 333 8//// 8//// 8//// |
| 2009-05-02T06:00 | 180 | 1 | 8.6 | 7.1 | 968 | 1027 | 02069 44/// /1801 10086 20071 39682 40271 7//// 8//// 333 8//// 8//// 8//// |
| 2009-05-02T09:00 | 110 | 1 | 14.2 | 9.4 | 969 | 1027 | 02099 44/// /1101 10142 20094 39690 40267 7//// 8//// 333 8//// 8//// 8//// |
| 2009-05-02T12:00 | 10 | 7 | 17.3 | 9.7 | 968 | 1025 | 02129 44/// /0107 10173 20097 39681 40251 7//// 8//// 333 8//// 8//// 8//// |
| 2009-05-02T15:00 | 350 | 6 | 13.7 | 11.5 | 969 | 1026 | 02159 44/// /3506 10137 20115 39686 40264 7//// 8//// 333 8//// 8//// 8//// |
| 2009-05-02T18:00 | 40 | 3 | 14.2 | 10.1 | 968 | 1026 | 02189 44/// /0403 10142 20101 39684 40261 7//// 8//// 333 8//// 8//// 8//// |
| 2009-05-02T21:00 | 40 | 2 | 10.8 | 8.9 | 969 | 1028 | 02219 44/// /0402 10108 20089 39691 40276 7//// 8//// 333 8//// 8//// 8//// |
| 2009-05-03T00:00 | 340 | 1 | 8.1 | 7.8 | 968 | 1027 | 03009 44/// /3401 10081 20078 39683 40273 7//// 8//// 333 8//// 8//// 8//// |
| 2009-05-03T03:00 | 80 | 2 | 5.9 | 5.6 | 967 | 1026 | 03039 44/// /0802 10059 20056 39671 40265 7//// 8//// 333 8//// 8//// 8//// |
| 2009-05-03T06:00 | 110 | 0 | 6.8 | 6.8 | 967 | 1027 | 03069 44/// /1100 10068 20068 39674 40267 7//// 8//// 333 8//// 8//// 8//// |
| 2009-05-03T09:00 | 310 | 2 | 11.5 | 10.1 | 967 | 1025 | 03099 44/// /3102 10115 20101 39672 40254 7//// 8//// 333 8//// 8//// 8//// |
| 2009-05-03T12:00 | 60 | 4 | 18.6 | 9.7 | 966 | 1022 | 03129 44/// /0604 10186 20097 39656 40222 7//// 8//// 333 8//// 8//// 8//// |
| 2009-05-03T15:00 | 300 | 7 | 17.3 | 8.7 | 964 | 1021 | 03159 44/// /3007 10173 20087 39645 40213 7//// 8//// 333 8//// 8//// 8//// |
| 2009-05-03T18:00 | 190 | 2 | 13.7 | 11.0 | 965 | 1022 | 03189 44/// /1902 10137 20110 39648 40224 7//// 8//// 333 8//// 8//// 8//// |
| 2009-05-03T21:00 | 40 | 2 | 11.4 | 8.7 | 966 | 1024 | 03219 44/// /0402 10114 20087 39662 40244 7//// 8//// 333 8//// 8//// 8//// |
| 2009-05-04T00:00 | 190 | 0 | 10.4 | 9.1 | 966 | 1024 | 04009 44/// /1900 10104 20091 39659 40243 7//// 8//// 333 8//// 8//// 8//// |
| 2009-05-04T03:00 | 90 | 2 | 9.8 | 8.8 | 966 | 1024 | 04039 44/// /0902 10098 20088 39656 40241 7//// 8//// 333 8//// 8//// 8//// |
| 2009-05-04T06:00 | 290 | 1 | 10.1 | 8.9 | 966 | 1024 | 04069 44/// /2901 10101 20089 39655 40239 7//// 8//// 333 8//// 8//// 8//// |
| 2009-05-04T09:00 | 0 | 3 | 12.1 | 7.8 | 966 | 1024 | 04099 44/// /0003 10121 20078 39658 40238 7//// 8//// 333 8//// 8//// 8//// |
| 2009-05-04T12:00 | 40 | 6 | 12.0 | 7.4 | 965 | 1023 | 04129 44/// /0406 10120 20074 39653 40233 7//// 8//// 333 8//// 8//// 8//// |
| 2009-05-04T15:00 | 70 | 4 | 12.7 | 5.7 | 965 | 1023 | 04159 44/// /0704 10127 20057 39649 40227 7//// 8//// 333 8//// 8//// 8//// |
| 2009-05-04T18:00 | 50 | 5 | 11.3 | 5.6 | 965 | 1023 | 04189 44/// /0505 10113 20056 39653 40234 7//// 8//// 333 8//// 8//// 8//// |
| 2009-05-04T21:00 | 90 | 1 | 7.2 | 4.6 | 966 | 1026 | 04219 44/// /0901 10072 20046 39665 40256 7//// 8//// 333 8//// 8//// 8//// |
| 2009-05-05T00:00 | 140 | 1 | 4.8 | 4.1 | 966 | 1026 | 05009 44/// /1401 10048 20041 39660 40256 7//// 8//// 333 8//// 8//// 8//// |
| 2009-05-05T03:00 | 0 | 0 | 3.4 | 3.0 | 966 | 1026 | 05039 44/// /0000 10034 20030 39659 40258 7//// 8//// 333 8//// 8//// 8//// |
| 2009-05-05T06:00 | 200 | 1 | 5.6 | 4.9 | 967 | 1027 | 05069 44/// /2001 10056 20049 39673 40268 7//// 8//// 333 8//// 8//// 8//// |
| 2009-05-05T09:00 | 190 | 0 | 8.1 | 5.5 | 968 | 1027 | 05099 44/// /1900 10081 20055 39681 40271 7//// 8//// 333 8//// 8//// 8//// |
| 2009-05-05T12:00 | 210 | 1 | 11.8 | 0.6 | 968 | 1026 | 05129 44/// /2101 10118 20006 39679 40261 7//// 8//// 333 8//// 8//// 8//// |
| 2009-05-05T15:00 | 280 | 2 | 14.1 | 2.6 | 967 | 1025 | 05159 44/// /2802 10141 20026 39670 40246 7//// 8//// 333 8//// 8//// 8//// |
| 2009-05-05T18:00 | 310 | 4 | 13.6 | 3.3 | 967 | 1024 | 05189 44/// /3104 10136 20033 39668 40245 7//// 8//// 333 8//// 8//// 8//// |
| 2009-05-05T21:00 | 300 | 0 | 9.0 | 4.9 | 968 | 1026 | 05219 44/// /3000 10090 20049 39675 40263 7//// 8//// 333 8//// 8//// 8//// |
| 2009-05-06T00:00 | 200 | 4 | 6.6 | 4.8 | 967 | 1027 | 06009 44/// /2004 10066 20048 39673 40266 7//// 8//// 333 8//// 8//// 8//// |
| 2009-05-06T03:00 | 200 | 5 | 6.9 | 4.7 | 967 | 1026 | 06039 44/// /2005 10069 20047 39666 40258 7//// 8//// 333 8//// 8//// 8//// |
| 2009-05-06T06:00 | 200 | 3 | 8.0 | 4.5 | 967 | 1026 | 06069 44/// /2003 10080 20045 39667 40256 7//// 8//// 333 8//// 8//// 8//// |
| 2009-05-06T09:00 | 230 | 5 | 15.6 | 7.0 | 966 | 1023 | 06099 44/// /2305 10156 20070 39661 40234 7//// 8//// 333 8//// 8//// 8//// |
| 2009-05-06T12:00 | 230 | 7 | 18.4 | 7.1 | 965 | 1022 | 06129 44/// /2307 10184 20071 39650 40216 7//// 8//// 333 8//// 8//// 8//// |
| 2009-05-06T15:00 | 240 | 8 | 21.1 | 7.2 | 963 | 1019 | 06159 44/// /2408 10211 20072 39634 40193 7//// 8//// 333 8//// 8//// 8//// |
| 2009-05-06T18:00 | 290 | 7 | 19.3 | 4.4 | 963 | 1019 | 06189 44/// /2907 10193 20044 39628 40191 7//// 8//// 333 8//// 8//// 8//// |
| 2009-05-06T21:00 | 80 | 2 | 9.9 | 6.2 | 963 | 1022 | 06219 44/// /0802 10099 20062 39633 40216 7//// 8//// 333 8//// 8//// 8//// |
| 2009-05-07T00:00 | 200 | 2 | 8.4 | 6.0 | 963 | 1022 | 07009 44/// /2002 10084 20060 39634 40221 7//// 8//// 333 8//// 8//// 8//// |
| 2009-05-07T03:00 | 200 | 3 | 5.4 | 4.6 | 963 | 1022 | 07039 44/// /2003 10054 20046 39630 40223 7//// 8//// 333 8//// 8//// 8//// |
| 2009-05-07T06:00 | 240 | 1 | 7.3 | 5.9 | 964 | 1022 | 07069 44/// /2401 10073 20059 39635 40224 7//// 8//// 333 8//// 8//// 8//// |
| 2009-05-07T09:00 | 10 | 2 | 14.7 | 7.5 | 963 | 1020 | 07099 44/// /0102 10147 20075 39632 40205 7//// 8//// 333 8//// 8//// 8//// |
| 2009-05-07T12:00 | 300 | 2 | 21.4 | 8.5 | 962 | 1017 | 07129 44/// /3002 10214 20085 39615 40173 7//// 8//// 333 8//// 8//// 8//// |
| 2009-05-07T15:00 | 10 | 2 | 23.8 | 7.7 | 960 | 1015 | 07159 44/// /0102 10238 20077 39599 40151 7//// 8//// 333 8//// 8//// 8//// |
| 2009-05-07T18:00 | 60 | 1 | 21.8 | 6.8 | 959 | 1015 | 07189 44/// /0601 10218 20068 39591 40147 7//// 8//// 333 8//// 8//// 8//// |
| 2009-05-07T21:00 | 200 | 3 | 16.3 | 9.4 | 960 | 1017 | 07219 44/// /2003 10163 20094 39599 40166 7//// 8//// 333 8//// 8//// 8//// |
| 2009-05-08T00:00 | 250 | 3 | 15.6 | 9.6 | 961 | 1018 | 08009 44/// /2503 10156 20096 39612 40182 7//// 8//// 333 8//// 8//// 8//// |
| 2009-05-08T03:00 | 100 | 2 | 13.1 | 10.4 | 959 | 1017 | 08039 44/// /1002 10131 20104 39593 40167 7//// 8//// 333 8//// 8//// 8//// |
| 2009-05-08T06:00 | 90 | 1 | 13.0 | 9.9 | 960 | 1017 | 08069 44/// /0901 10130 20099 39597 40171 7//// 8//// 333 8//// 8//// 8//// |
| 2009-05-08T09:00 | 20 | 2 | 18.5 | 11.7 | 960 | 1016 | 08099 44/// /0202 10185 20117 39599 40162 7//// 8//// 333 8//// 8//// 8//// |
| 2009-05-08T12:00 | 220 | 15 | 22.8 | 9.3 | 959 | 1015 | 08129 44/// /2215 10228 20093 39593 40147 7//// 8//// 333 8//// 8//// 8//// |
| 2009-05-08T15:00 | 230 | 12 | 20.4 | 10.5 | 960 | 1016 | 08159 44/// /2312 10204 20105 39602 40161 7//// 8//// 333 8//// 8//// 8//// |
| 2009-05-08T18:00 | 210 | 9 | 17.5 | 10.0 | 961 | 1018 | 08189 44/// /2109 10175 20100 39614 40180 7//// 8//// 333 8//// 8//// 8//// |
| 2009-05-08T21:00 | 200 | 3 | 14.6 | 9.9 | 963 | 1020 | 08219 44/// /2003 10146 20099 39630 40203 7//// 8//// 333 8//// 8//// 8//// |
| 2009-05-09T00:00 | 180 | 2 | 12.9 | 10.1 | 963 | 1020 | 09009 44/// /1802 10129 20101 39628 40204 7//// 8//// 333 8//// 8//// 8//// |
| 2009-05-09T03:00 | 210 | 0 | 9.4 | 8.6 | 962 | 1021 | 09039 44/// /2100 10094 20086 39623 40207 7//// 8//// 333 8//// 8//// 8//// |
| 2009-05-09T06:00 | 200 | 2 | 11.1 | 9.6 | 962 | 1020 | 09069 44/// /2002 10111 20096 39622 40202 7//// 8//// 333 8//// 8//// 8//// |
| 2009-05-09T09:00 | 50 | 2 | 16.1 | 10.6 | 961 | 1018 | 09099 44/// /0502 10161 20106 39613 40182 7//// 8//// 333 8//// 8//// 8//// |
| 2009-05-09T12:00 | 10 | 4 | 19.5 | 11.4 | 960 | 1016 | 09129 44/// /0104 10195 20114 39597 40158 7//// 8//// 333 8//// 8//// 8//// |
| 2009-05-09T15:00 | 290 | 4 | 20.9 | 12.2 | 959 | 1015 | 09159 44/// /2904 10209 20122 39589 40146 7//// 8//// 333 8//// 8//// 8//// |
| 2009-05-09T18:00 | 200 | 6 | 21.4 | 10.6 | 959 | 1014 | 09189 44/// /2006 10214 20106 39588 40144 7//// 8//// 333 8//// 8//// 8//// |
| 2009-05-09T21:00 | 220 | 1 | 17.8 | 10.9 | 960 | 1016 | 09219 44/// /2201 10178 20109 39601 40165 7//// 8//// 333 8//// 8//// 8//// |
| 2009-05-10T00:00 | 120 | 1 | 14.1 | 8.6 | 961 | 1018 | 10009 44/// /1201 10141 20086 39612 40185 7//// 8//// 333 8//// 8//// 8//// |
| 2009-05-10T03:00 | 90 | 2 | 13.4 | 8.9 | 961 | 1018 | 10039 44/// /0902 10134 20089 39608 40182 7//// 8//// 333 8//// 8//// 8//// |
| 2009-05-10T06:00 | 190 | 3 | 12.5 | 9.7 | 961 | 1019 | 10069 44/// /1903 10125 20097 39612 40188 7//// 8//// 333 8//// 8//// 8//// |
| 2009-05-10T09:00 | 360 | 3 | 19.0 | 10.5 | 961 | 1018 | 10099 44/// /3603 10190 20105 39612 40175 7//// 8//// 333 8//// 8//// 8//// |
| 2009-05-10T12:00 | 60 | 1 | 21.2 | 10.5 | 961 | 1016 | 10129 44/// /0601 10212 20105 39606 40164 7//// 8//// 333 8//// 8//// 8//// |
| 2009-05-10T15:00 | 100 | 9 | 21.8 | 12.1 | 959 | 1014 | 10159 44/// /1009 10218 20121 39590 40145 7//// 8//// 333 8//// 8//// 8//// |
| 2009-05-10T18:00 | 220 | 5 | 17.1 | 13.3 | 960 | 1016 | 10189 44/// /2205 10171 20133 39598 40164 7//// 8//// 333 8//// 8//// 8//// |
| 2009-05-10T21:00 | 190 | 3 | 13.0 | 11.7 | 960 | 1017 | 10219 44/// /1903 10130 20117 39600 40174 7//// 8//// 333 8//// 8//// 8//// |
| 2009-05-11T00:00 | 220 | 3 | 11.2 | 10.4 | 960 | 1018 | 11009 44/// /2203 10112 20104 39599 40177 7//// 8//// 333 8//// 8//// 8//// |
| 2009-05-11T03:00 | 200 | 2 | 10.9 | 10.3 | 959 | 1017 | 11039 44/// /2002 10109 20103 39594 40173 7//// 8//// 333 8//// 8//// 8//// |
| 2009-05-11T06:00 | 170 | 1 | 12.3 | 11.3 | 959 | 1017 | 11069 44/// /1701 10123 20113 39594 40170 7//// 8//// 333 8//// 8//// 8//// |
| 2009-05-11T09:00 | 320 | 2 | 16.6 | 12.7 | 960 | 1016 | 11099 44/// /3202 10166 20127 39597 40164 7//// 8//// 333 8//// 8//// 8//// |
| 2009-05-11T12:00 | 180 | 1 | 19.8 | 12.5 | 959 | 1014 | 11129 44/// /1801 10198 20125 39586 40145 7//// 8//// 333 8//// 8//// 8//// |
| 2009-05-11T15:00 | 320 | 3 | 22.2 | 11.6 | 957 | 1013 | 11159 44/// /3203 10222 20116 39574 40128 7//// 8//// 333 8//// 8//// 8//// |
| 2009-05-11T18:00 | 230 | 1 | 20.5 | 12.8 | 957 | 1012 | 11189 44/// /2301 10205 20128 39568 40125 7//// 8//// 333 8//// 8//// 8//// |
| 2009-05-11T21:00 | 220 | 1 | 14.6 | 11.9 | 958 | 1015 | 11219 44/// /2201 10146 20119 39577 40147 7//// 8//// 333 8//// 8//// 8//// |
| 2009-05-12T00:00 | 30 | 3 | 13.7 | 11.0 | 958 | 1015 | 12009 44/// /0303 10137 20110 39575 40146 7//// 8//// 333 8//// 8//// 8//// |
| 2009-05-12T03:00 | 210 | 2 | 13.0 | 10.9 | 958 | 1015 | 12039 44/// /2102 10130 20109 39576 40149 7//// 8//// 333 8//// 8//// 8//// |
| 2009-05-12T06:00 | 160 | 1 | 13.8 | 12.2 | 958 | 1016 | 12069 44/// /1601 10138 20122 39583 40155 7//// 8//// 333 8//// 8//// 8//// |
| 2009-05-12T09:00 | 10 | 1 | 16.6 | 13.4 | 959 | 1015 | 12099 44/// /0101 10166 20134 39588 40154 7//// 8//// 333 8//// 8//// 8//// |
| 2009-05-12T12:00 | 190 | 14 | 19.6 | 10.1 | 960 | 1016 | 12129 44/// /1914 10196 20101 39595 40155 7//// 8//// 333 8//// 8//// 8//// |
| 2009-05-12T15:00 | 30 | 3 | 17.5 | 14.6 | 959 | 1015 | 12159 44/// /0303 10175 20146 39588 40152 7//// 8//// 333 8//// 8//// 8//// |
| 2009-05-12T18:00 | 350 | 3 | 16.5 | 14.5 | 958 | 1015 | 12189 44/// /3503 10165 20145 39585 40151 7//// 8//// 333 8//// 8//// 8//// |
| 2009-05-12T21:00 | 200 | 1 | 12.6 | 12.5 | 959 | 1017 | 12219 44/// /2001 10126 20125 39593 40168 7//// 8//// 333 8//// 8//// 8//// |
| 2009-05-13T00:00 | 180 | 1 | 12.0 | 11.6 | 960 | 1017 | 13009 44/// /1801 10120 20116 39596 40172 7//// 8//// 333 8//// 8//// 8//// |
| 2009-05-13T03:00 | 200 | 1 | 10.3 | 10.3 | 959 | 1017 | 13039 44/// /2001 10103 20103 39592 40172 7//// 8//// 333 8//// 8//// 8//// |
| 2009-05-13T06:00 | 240 | 1 | 11.7 | 11.4 | 959 | 1017 | 13069 44/// /2401 10117 20114 39591 40168 7//// 8//// 333 8//// 8//// 8//// |
| 2009-05-13T09:00 | 140 | 1 | 16.5 | 13.5 | 959 | 1016 | 13099 44/// /1401 10165 20135 39590 40156 7//// 8//// 333 8//// 8//// 8//// |
| 2009-05-13T12:00 | 280 | 2 | 19.9 | 13.0 | 958 | 1014 | 13129 44/// /2802 10199 20130 39578 40137 7//// 8//// 333 8//// 8//// 8//// |
| 2009-05-13T15:00 | 240 | 7 | 22.0 | 12.3 | 957 | 1012 | 13159 44/// /2407 10220 20123 39568 40122 7//// 8//// 333 8//// 8//// 8//// |
| 2009-05-13T18:00 | 250 | 5 | 19.1 | 13.5 | 956 | 1011 | 13189 44/// /2505 10191 20135 39555 40114 7//// 8//// 333 8//// 8//// 8//// |
| 2009-05-13T21:00 | 140 | 3 | 15.9 | 13.1 | 956 | 1012 | 13219 44/// /1403 10159 20131 39555 40121 7//// 8//// 333 8//// 8//// 8//// |
| 2009-05-14T00:00 | 170 | 3 | 14.9 | 13.2 | 955 | 1012 | 14009 44/// /1703 10149 20132 39551 40118 7//// 8//// 333 8//// 8//// 8//// |
| 2009-05-14T03:00 | 200 | 1 | 13.9 | 13.5 | 954 | 1011 | 14039 44/// /2001 10139 20135 39541 40110 7//// 8//// 333 8//// 8//// 8//// |
| 2009-05-14T06:00 | 180 | 1 | 14.0 | 13.4 | 953 | 1010 | 14069 44/// /1801 10140 20134 39533 40101 7//// 8//// 333 8//// 8//// 8//// |
| 2009-05-14T09:00 | 150 | 1 | 16.0 | 13.8 | 953 | 1009 | 14099 44/// /1501 10160 20138 39527 40091 7//// 8//// 333 8//// 8//// 8//// |
| 2009-05-14T12:00 | 220 | 7 | 17.9 | 11.9 | 952 | 1008 | 14129 44/// /2207 10179 20119 39524 40084 7//// 8//// 333 8//// 8//// 8//// |
| 2009-05-14T15:00 | 190 | 5 | 19.1 | 9.4 | 951 | 1006 | 14159 44/// /1905 10191 20094 39509 40065 7//// 8//// 333 8//// 8//// 8//// |
| 2009-05-14T18:00 | 120 | 1 | 19.1 | 10.9 | 950 | 1005 | 14189 44/// /1201 10191 20109 39498 40054 7//// 8//// 333 8//// 8//// 8//// |
| 2009-05-14T21:00 | 200 | 6 | 13.6 | 12.6 | 952 | 1009 | 14219 44/// /2006 10136 20126 39519 40087 7//// 8//// 333 8//// 8//// 8//// |
| 2009-05-15T00:00 | 90 | 2 | 13.1 | 12.3 | 952 | 1008 | 15009 44/// /0902 10131 20123 39516 40085 7//// 8//// 333 8//// 8//// 8//// |
| 2009-05-15T03:00 | 210 | 3 | 13.1 | 12.3 | 951 | 1008 | 15039 44/// /2103 10131 20123 39510 40079 7//// 8//// 333 8//// 8//// 8//// |
| 2009-05-15T06:00 | 210 | 3 | 12.8 | 11.7 | 951 | 1008 | 15069 44/// /2103 10128 20117 39512 40082 7//// 8//// 333 8//// 8//// 8//// |
| 2009-05-15T09:00 | 220 | 5 | 13.7 | 11.3 | 952 | 1009 | 15099 44/// /2205 10137 20113 39519 40087 7//// 8//// 333 8//// 8//// 8//// |
| 2009-05-15T12:00 | 240 | 4 | 13.3 | 10.1 | 953 | 1010 | 15129 44/// /2404 10133 20101 39528 40098 7//// 8//// 333 8//// 8//// 8//// |
| 2009-05-15T15:00 | 210 | 6 | 13.5 | 10.7 | 954 | 1011 | 15159 44/// /2106 10135 20107 39539 40109 7//// 8//// 333 8//// 8//// 8//// |
| 2009-05-15T18:00 | 210 | 6 | 12.1 | 9.8 | 955 | 1012 | 15189 44/// /2106 10121 20098 39550 40123 7//// 8//// 333 8//// 8//// 8//// |
| 2009-05-15T21:00 | 200 | 4 | 11.0 | 9.9 | 957 | 1015 | 15219 44/// /2004 10110 20099 39570 40147 7//// 8//// 333 8//// 8//// 8//// |
| 2009-05-16T00:00 | 200 | 3 | 10.3 | 9.3 | 958 | 1016 | 16009 44/// /2003 10103 20093 39577 40156 7//// 8//// 333 8//// 8//// 8//// |
| 2009-05-16T03:00 | 220 | 2 | 9.2 | 8.1 | 958 | 1016 | 16039 44/// /2202 10092 20081 39577 40158 7//// 8//// 333 8//// 8//// 8//// |
| 2009-05-16T06:00 | 210 | 2 | 9.8 | 7.6 | 958 | 1016 | 16069 44/// /2102 10098 20076 39585 40165 7//// 8//// 333 8//// 8//// 8//// |
| 2009-05-16T09:00 | 330 | 3 | 13.0 | 8.4 | 959 | 1016 | 16099 44/// /3303 10130 20084 39587 40161 7//// 8//// 333 8//// 8//// 8//// |
| 2009-05-16T12:00 | 330 | 2 | 16.5 | 9.0 | 958 | 1015 | 16129 44/// /3302 10165 20090 39584 40150 7//// 8//// 333 8//// 8//// 8//// |
| 2009-05-16T15:00 | 260 | 5 | 20.4 | 5.8 | 958 | 1013 | 16159 44/// /2605 10204 20058 39575 40132 7//// 8//// 333 8//// 8//// 8//// |
| 2009-05-16T18:00 | 300 | 3 | 19.7 | 10.3 | 957 | 1013 | 16189 44/// /3003 10197 20103 39574 40133 7//// 8//// 333 8//// 8//// 8//// |
| 2009-05-16T21:00 | 170 | 1 | 13.3 | 10.9 | 959 | 1016 | 16219 44/// /1701 10133 20109 39586 40159 7//// 8//// 333 8//// 8//// 8//// |
| 2009-05-17T00:00 | 200 | 1 | 10.2 | 9.4 | 958 | 1016 | 17009 44/// /2001 10102 20094 39582 40161 7//// 8//// 333 8//// 8//// 8//// |
| 2009-05-17T03:00 | 200 | 2 | 8.5 | 8.0 | 958 | 1016 | 17039 44/// /2002 10085 20080 39575 40158 7//// 8//// 333 8//// 8//// 8//// |
| 2009-05-17T06:00 | 200 | 3 | 10.5 | 9.2 | 958 | 1015 | 17069 44/// /2003 10105 20092 39576 40154 7//// 8//// 333 8//// 8//// 8//// |
| 2009-05-17T09:00 | 330 | 2 | 17.5 | 12.4 | 958 | 1014 | 17099 44/// /3302 10175 20124 39575 40138 7//// 8//// 333 8//// 8//// 8//// |
| 2009-05-17T12:00 | 230 | 5 | 24.0 | 12.4 | 957 | 1012 | 17129 44/// /2305 10240 20124 39566 40116 7//// 8//// 333 8//// 8//// 8//// |
| 2009-05-17T15:00 | 210 | 7 | 21.6 | 10.3 | 957 | 1012 | 17159 44/// /2107 10216 20103 39568 40123 7//// 8//// 333 8//// 8//// 8//// |
| 2009-05-17T18:00 | 220 | 8 | 21.2 | 9.7 | 958 | 1013 | 17189 44/// /2208 10212 20097 39578 40134 7//// 8//// 333 8//// 8//// 8//// |
| 2009-05-17T21:00 | 300 | 4 | 17.8 | 10.0 | 960 | 1017 | 17219 44/// /3004 10178 20100 39605 40170 7//// 8//// 333 8//// 8//// 8//// |
| 2009-05-18T00:00 | 210 | 5 | 11.9 | 10.1 | 964 | 1022 | 18009 44/// /2105 10119 20101 39639 40218 7//// 8//// 333 8//// 8//// 8//// |
| 2009-05-18T03:00 | 260 | 1 | 10.8 | 10.1 | 963 | 1021 | 18039 44/// /2601 10108 20101 39629 40210 7//// 8//// 333 8//// 8//// 8//// |
| 2009-05-18T06:00 | 210 | 1 | 11.1 | 10.5 | 964 | 1022 | 18069 44/// /2101 10111 20105 39635 40216 7//// 8//// 333 8//// 8//// 8//// |
| 2009-05-18T09:00 | 190 | 1 | 12.0 | 10.7 | 964 | 1022 | 18099 44/// /1901 10120 20107 39644 40223 7//// 8//// 333 8//// 8//// 8//// |
| 2009-05-18T12:00 | 80 | 2 | 15.1 | 11.5 | 964 | 1021 | 18129 44/// /0802 10151 20115 39641 40213 7//// 8//// 333 8//// 8//// 8//// |
| 2009-05-18T15:00 | 20 | 4 | 17.6 | 9.2 | 964 | 1020 | 18159 44/// /0204 10176 20092 39635 40202 7//// 8//// 333 8//// 8//// 8//// |
| 2009-05-18T18:00 | 20 | 5 | 17.1 | 10.7 | 963 | 1020 | 18189 44/// /0205 10171 20107 39633 40201 7//// 8//// 333 8//// 8//// 8//// |
| 2009-05-18T21:00 | 80 | 2 | 12.4 | 10.3 | 964 | 1022 | 18219 44/// /0802 10124 20103 39640 40218 7//// 8//// 333 8//// 8//// 8//// |
| 2009-05-19T00:00 | 180 | 1 | 10.0 | 9.3 | 964 | 1023 | 19009 44/// /1801 10100 20093 39643 40227 7//// 8//// 333 8//// 8//// 8//// |
| 2009-05-19T03:00 | 200 | 1 | 7.8 | 7.5 | 964 | 1023 | 19039 44/// /2001 10078 20075 39641 40229 7//// 8//// 333 8//// 8//// 8//// |
| 2009-05-19T06:00 | 240 | 1 | 9.2 | 8.6 | 964 | 1023 | 19069 44/// /2401 10092 20086 39645 40230 7//// 8//// 333 8//// 8//// 8//// |
| 2009-05-19T09:00 | 320 | 2 | 15.3 | 11.3 | 965 | 1022 | 19099 44/// /3202 10153 20113 39648 40220 7//// 8//// 333 8//// 8//// 8//// |
| 2009-05-19T12:00 | 280 | 0 | 20.1 | 10.1 | 964 | 1020 | 19129 44/// /2800 10201 20101 39639 40201 7//// 8//// 333 8//// 8//// 8//// |
| 2009-05-19T15:00 | 210 | 1 | 23.9 | 7.6 | 963 | 1018 | 19159 44/// /2101 10239 20076 39626 40179 7//// 8//// 333 8//// 8//// 8//// |
| 2009-05-19T18:00 | 220 | 3 | 21.9 | 7.2 | 963 | 1018 | 19189 44/// /2203 10219 20072 39628 40185 7//// 8//// 333 8//// 8//// 8//// |
| 2009-05-19T21:00 | 90 | 2 | 13.9 | 9.0 | 964 | 1022 | 19219 44/// /0902 10139 20090 39643 40218 7//// 8//// 333 8//// 8//// 8//// |
| 2009-05-20T00:00 | 200 | 3 | 9.6 | 7.6 | 965 | 1023 | 20009 44/// /2003 10096 20076 39647 40232 7//// 8//// 333 8//// 8//// 8//// |
| 2009-05-20T03:00 | 170 | 2 | 8.6 | 7.1 | 964 | 1023 | 20039 44/// /1702 10086 20071 39642 40229 7//// 8//// 333 8//// 8//// 8//// |
| 2009-05-20T06:00 | 190 | 1 | 11.1 | 8.3 | 965 | 1023 | 20069 44/// /1901 10111 20083 39648 40229 7//// 8//// 333 8//// 8//// 8//// |
| 2009-05-20T09:00 | 340 | 1 | 19.1 | 11.3 | 965 | 1021 | 20099 44/// /3401 10191 20113 39648 40212 7//// 8//// 333 8//// 8//// 8//// |
| 2009-05-20T12:00 | 40 | 3 | 23.4 | 12.6 | 963 | 1019 | 20129 44/// /0403 10234 20126 39632 40187 7//// 8//// 333 8//// 8//// 8//// |
| 2009-05-20T15:00 | 290 | 3 | 26.7 | 10.0 | 962 | 1016 | 20159 44/// /2903 10267 20100 39615 40162 7//// 8//// 333 8//// 8//// 8//// |
| 2009-05-20T18:00 | 240 | 2 | 25.9 | 7.9 | 960 | 1015 | 20189 44/// /2402 10259 20079 39605 40153 7//// 8//// 333 8//// 8//// 8//// |
| 2009-05-20T21:00 | 180 | 3 | 16.4 | 10.5 | 960 | 1017 | 20219 44/// /1803 10164 20105 39605 40173 7//// 8//// 333 8//// 8//// 8//// |
| 2009-05-21T00:00 | 210 | 4 | 14.3 | 10.2 | 960 | 1018 | 21009 44/// /2104 10143 20102 39605 40177 7//// 8//// 333 8//// 8//// 8//// |
| 2009-05-21T03:00 | 210 | 4 | 14.4 | 9.6 | 961 | 1018 | 21039 44/// /2104 10144 20096 39608 40180 7//// 8//// 333 8//// 8//// 8//// |
| 2009-05-21T06:00 | 80 | 2 | 17.5 | 9.9 | 960 | 1016 | 21069 44/// /0802 10175 20099 39600 40165 7//// 8//// 333 8//// 8//// 8//// |
| 2009-05-21T09:00 | 220 | 4 | 22.5 | 11.1 | 960 | 1015 | 21099 44/// /2204 10225 20111 39599 40154 7//// 8//// 333 8//// 8//// 8//// |
| 2009-05-21T12:00 | 220 | 2 | 25.7 | 12.1 | 958 | 1013 | 21129 44/// /2202 10257 20121 39584 40131 7//// 8//// 333 8//// 8//// 8//// |
| 2009-05-21T15:00 | 230 | 3 | 27.0 | 10.5 | 956 | 1011 | 21159 44/// /2303 10270 20105 39565 40109 7//// 8//// 333 8//// 8//// 8//// |
| 2009-05-21T18:00 | 280 | 3 | 25.1 | 11.6 | 957 | 1011 | 21189 44/// /2803 10251 20116 39566 40113 7//// 8//// 333 8//// 8//// 8//// |
| 2009-05-21T21:00 | 220 | 7 | 21.5 | 10.3 | 958 | 1013 | 21219 44/// /2207 10215 20103 39575 40130 7//// 8//// 333 8//// 8//// 8//// |
| 2009-05-22T00:00 | 80 | 3 | 15.7 | 11.7 | 957 | 1014 | 22009 44/// /0803 10157 20117 39571 40138 7//// 8//// 333 8//// 8//// 8//// |
| 2009-05-22T03:00 | 250 | 1 | 15.5 | 13.8 | 958 | 1014 | 22039 44/// /2501 10155 20138 39577 40145 7//// 8//// 333 8//// 8//// 8//// |
| 2009-05-22T06:00 | 250 | 0 | 16.3 | 14.1 | 959 | 1016 | 22069 44/// /2500 10163 20141 39589 40156 7//// 8//// 333 8//// 8//// 8//// |
| 2009-05-22T09:00 | 260 | 2 | 21.6 | 14.8 | 959 | 1015 | 22099 44/// /2602 10216 20148 39594 40150 7//// 8//// 333 8//// 8//// 8//// |
| 2009-05-22T12:00 | 300 | 8 | 23.7 | 13.4 | 960 | 1015 | 22129 44/// /3008 10237 20134 39600 40152 7//// 8//// 333 8//// 8//// 8//// |
| 2009-05-22T15:00 | 260 | 6 | 25.1 | 13.5 | 960 | 1015 | 22159 44/// /2606 10251 20135 39599 40148 7//// 8//// 333 8//// 8//// 8//// |
| 2009-05-22T18:00 | 50 | 4 | 22.5 | 15.0 | 960 | 1015 | 22189 44/// /0504 10225 20150 39599 40154 7//// 8//// 333 8//// 8//// 8//// |
| 2009-05-22T21:00 | 80 | 2 | 17.3 | 13.2 | 961 | 1018 | 22219 44/// /0802 10173 20132 39611 40177 7//// 8//// 333 8//// 8//// 8//// |
| 2009-05-23T00:00 | 40 | 0 | 13.5 | 12.4 | 961 | 1019 | 23009 44/// /0400 10135 20124 39613 40187 7//// 8//// 333 8//// 8//// 8//// |
| 2009-05-23T03:00 | 200 | 2 | 12.5 | 12.0 | 961 | 1018 | 23039 44/// /2002 10125 20120 39608 40184 7//// 8//// 333 8//// 8//// 8//// |
| 2009-05-23T06:00 | 220 | 1 | 14.2 | 13.0 | 961 | 1018 | 23069 44/// /2201 10142 20130 39611 40184 7//// 8//// 333 8//// 8//// 8//// |
| 2009-05-23T09:00 | 20 | 2 | 19.3 | 13.6 | 961 | 1017 | 23099 44/// /0202 10193 20136 39612 40174 7//// 8//// 333 8//// 8//// 8//// |
| 2009-05-23T12:00 | 40 | 2 | 23.7 | 15.3 | 960 | 1016 | 23129 44/// /0402 10237 20153 39604 40156 7//// 8//// 333 8//// 8//// 8//// |
| 2009-05-23T15:00 | 340 | 3 | 25.0 | 16.3 | 960 | 1014 | 23159 44/// /3403 10250 20163 39596 40145 7//// 8//// 333 8//// 8//// 8//// |
| 2009-05-23T18:00 | 10 | 2 | 24.4 | 16.4 | 960 | 1015 | 23189 44/// /0102 10244 20164 39600 40151 7//// 8//// 333 8//// 8//// 8//// |
| 2009-05-23T21:00 | 90 | 1 | 20.0 | 17.0 | 961 | 1017 | 23219 44/// /0901 10200 20170 39608 40168 7//// 8//// 333 8//// 8//// 8//// |
| 2009-05-24T00:00 | 200 | 4 | 17.6 | 15.6 | 961 | 1018 | 24009 44/// /2004 10176 20156 39613 40178 7//// 8//// 333 8//// 8//// 8//// |
| 2009-05-24T03:00 | 110 | 1 | 16.9 | 14.8 | 962 | 1018 | 24039 44/// /1101 10169 20148 39617 40184 7//// 8//// 333 8//// 8//// 8//// |
| 2009-05-24T06:00 | 210 | 2 | 17.9 | 14.7 | 963 | 1019 | 24069 44/// /2102 10179 20147 39628 40194 7//// 8//// 333 8//// 8//// 8//// |
| 2009-05-24T09:00 | 70 | 2 | 24.3 | 16.5 | 963 | 1018 | 24099 44/// /0702 10243 20165 39632 40185 7//// 8//// 333 8//// 8//// 8//// |
| 2009-05-24T12:00 | 250 | 7 | 30.5 | 11.4 | 962 | 1016 | 24129 44/// /2507 10305 20114 39625 40165 7//// 8//// 333 8//// 8//// 8//// |
| 2009-05-24T15:00 | 30 | 3 | 30.7 | 15.5 | 962 | 1016 | 24159 44/// /0303 10307 20155 39616 40155 7//// 8//// 333 8//// 8//// 8//// |
| 2009-05-24T18:00 | 120 | 2 | 29.5 | 14.4 | 961 | 1015 | 24189 44/// /1202 10295 20144 39609 40150 7//// 8//// 333 8//// 8//// 8//// |
| 2009-05-24T21:00 | 60 | 0 | 20.9 | 12.6 | 962 | 1018 | 24219 44/// /0600 10209 20126 39618 40177 7//// 8//// 333 8//// 8//// 8//// |
| 2009-05-25T00:00 | 210 | 1 | 16.4 | 12.1 | 962 | 1019 | 25009 44/// /2101 10164 20121 39619 40187 7//// 8//// 333 8//// 8//// 8//// |
| 2009-05-25T03:00 | 110 | 2 | 14.1 | 10.6 | 961 | 1018 | 25039 44/// /1102 10141 20106 39612 40185 7//// 8//// 333 8//// 8//// 8//// |
| 2009-05-25T06:00 | 220 | 0 | 17.6 | 12.4 | 962 | 1018 | 25069 44/// /2200 10176 20124 39619 40185 7//// 8//// 333 8//// 8//// 8//// |
| 2009-05-25T09:00 | 40 | 2 | 23.5 | 14.0 | 962 | 1017 | 25099 44/// /0402 10235 20140 39617 40171 7//// 8//// 333 8//// 8//// 8//// |
| 2009-05-25T12:00 | 70 | 3 | 28.4 | 13.0 | 960 | 1015 | 25129 44/// /0703 10284 20130 39603 40146 7//// 8//// 333 8//// 8//// 8//// |
| 2009-05-25T15:00 | 40 | 3 | 31.2 | 14.0 | 958 | 1011 | 25159 44/// /0403 10312 20140 39575 40111 7//// 8//// 333 8//// 8//// 8//// |
| 2009-05-25T18:00 | 300 | 3 | 28.2 | 15.2 | 957 | 1011 | 25189 44/// /3003 10282 20152 39566 40107 7//// 8//// 333 8//// 8//// 8//// |
| 2009-05-25T21:00 | 210 | 4 | 22.5 | 13.8 | 957 | 1013 | 25219 44/// /2104 10225 20138 39574 40127 7//// 8//// 333 8//// 8//// 8//// |
| 2009-05-26T00:00 | 200 | 3 | 18.4 | 12.9 | 957 | 1013 | 26009 44/// /2003 10184 20129 39571 40132 7//// 8//// 333 8//// 8//// 8//// |
| 2009-05-26T03:00 | 210 | 1 | 19.5 | 13.3 | 957 | 1013 | 26039 44/// /2101 10195 20133 39570 40129 7//// 8//// 333 8//// 8//// 8//// |
| 2009-05-26T06:00 | 200 | 6 | 19.6 | 13.1 | 958 | 1014 | 26069 44/// /2006 10196 20131 39583 40143 7//// 8//// 333 8//// 8//// 8//// |
| 2009-05-26T09:00 | 300 | 4 | 22.4 | 12.9 | 958 | 1014 | 26099 44/// /3004 10224 20129 39585 40139 7//// 8//// 333 8//// 8//// 8//// |
| 2009-05-26T12:00 | 240 | 4 | 17.5 | 13.4 | 959 | 1016 | 26129 44/// /2404 10175 20134 39592 40156 7//// 8//// 333 8//// 8//// 8//// |
| 2009-05-26T15:00 | 300 | 7 | 17.8 | 11.5 | 960 | 1016 | 26159 44/// /3007 10178 20115 39601 40165 7//// 8//// 333 8//// 8//// 8//// |
| 2009-05-26T18:00 | 180 | 7 | 13.7 | 11.9 | 961 | 1019 | 26189 44/// /1807 10137 20119 39614 40188 7//// 8//// 333 8//// 8//// 8//// |
| 2009-05-26T21:00 | 300 | 4 | 13.1 | 12.3 | 964 | 1022 | 26219 44/// /3004 10131 20123 39639 40216 7//// 8//// 333 8//// 8//// 8//// |
| 2009-05-27T00:00 | 260 | 1 | 11.5 | 10.2 | 966 | 1025 | 27009 44/// /2601 10115 20102 39664 40246 7//// 8//// 333 8//// 8//// 8//// |
| 2009-05-27T03:00 | 80 | 2 | 11.2 | 10.1 | 967 | 1026 | 27039 44/// /0802 10112 20101 39674 40257 7//// 8//// 333 8//// 8//// 8//// |
| 2009-05-27T06:00 | 20 | 6 | 10.8 | 5.7 | 969 | 1027 | 27069 44/// /0206 10108 20057 39687 40271 7//// 8//// 333 8//// 8//// 8//// |
| 2009-05-27T09:00 | 110 | 4 | 11.1 | 7.9 | 970 | 1028 | 27099 44/// /1104 10111 20079 39699 40284 7//// 8//// 333 8//// 8//// 8//// |
| 2009-05-27T12:00 | 30 | 4 | 14.2 | 6.4 | 970 | 1027 | 27129 44/// /0304 10142 20064 39695 40273 7//// 8//// 333 8//// 8//// 8//// |
| 2009-05-27T15:00 | 90 | 3 | 17.4 | 7.2 | 969 | 1026 | 27159 44/// /0903 10174 20072 39690 40260 7//// 8//// 333 8//// 8//// 8//// |
| 2009-05-27T18:00 | 340 | 4 | 16.2 | 4.5 | 969 | 1026 | 27189 44/// /3404 10162 20045 39690 40263 7//// 8//// 333 8//// 8//// 8//// |
| 2009-05-27T21:00 | 100 | 2 | 12.6 | 7.0 | 970 | 1028 | 27219 44/// /1002 10126 20070 39700 40281 7//// 8//// 333 8//// 8//// 8//// |
| 2009-05-28T00:00 | 160 | 2 | 12.1 | 7.8 | 971 | 1029 | 28009 44/// /1602 10121 20078 39707 40290 7//// 8//// 333 8//// 8//// 8//// |
| 2009-05-28T03:00 | 190 | 3 | 11.5 | 8.7 | 971 | 1029 | 28039 44/// /1903 10115 20087 39706 40290 7//// 8//// 333 8//// 8//// 8//// |
| 2009-05-28T06:00 | 220 | 1 | 12.0 | 9.1 | 971 | 1029 | 28069 44/// /2201 10120 20091 39709 40292 7//// 8//// 333 8//// 8//// 8//// |
| 2009-05-28T09:00 | 60 | 2 | 15.8 | 7.1 | 971 | 1029 | 28099 44/// /0602 10158 20071 39714 40289 7//// 8//// 333 8//// 8//// 8//// |
| 2009-05-28T12:00 | 30 | 3 | 19.1 | 7.7 | 971 | 1028 | 28129 44/// /0303 10191 20077 39711 40279 7//// 8//// 333 8//// 8//// 8//// |
| 2009-05-28T15:00 | 30 | 8 | 19.3 | 9.2 | 971 | 1027 | 28159 44/// /0308 10193 20092 39707 40274 7//// 8//// 333 8//// 8//// 8//// |
| 2009-05-28T18:00 | 50 | 6 | 17.9 | 9.8 | 971 | 1028 | 28189 44/// /0506 10179 20098 39709 40280 7//// 8//// 333 8//// 8//// 8//// |
| 2009-05-28T21:00 | 50 | 7 | 15.4 | 9.7 | 972 | 1029 | 28219 44/// /0507 10154 20097 39716 40292 7//// 8//// 333 8//// 8//// 8//// |
| 2009-05-29T00:00 | 60 | 3 | 11.9 | 9.8 | 971 | 1030 | 29009 44/// /0603 10119 20098 39712 40296 7//// 8//// 333 8//// 8//// 8//// |
| 2009-05-29T03:00 | 70 | 2 | 10.7 | 9.0 | 970 | 1028 | 29039 44/// /0702 10107 20090 39698 40283 7//// 8//// 333 8//// 8//// 8//// |
| 2009-05-29T06:00 | 30 | 3 | 13.1 | 10.6 | 969 | 1027 | 29069 44/// /0303 10131 20106 39691 40271 7//// 8//// 333 8//// 8//// 8//// |
| 2009-05-29T09:00 | 50 | 8 | 15.7 | 10.3 | 969 | 1026 | 29099 44/// /0508 10157 20103 39686 40260 7//// 8//// 333 8//// 8//// 8//// |
| 2009-05-29T12:00 | 50 | 11 | 19.6 | 10.0 | 967 | 1024 | 29129 44/// /0511 10196 20100 39673 40238 7//// 8//// 333 8//// 8//// 8//// |
| 2009-05-29T15:00 | 60 | 13 | 20.0 | 6.0 | 966 | 1022 | 29159 44/// /0613 10200 20060 39659 40222 7//// 8//// 333 8//// 8//// 8//// |
| 2009-05-29T18:00 | 60 | 17 | 17.7 | -3.6 | 965 | 1022 | 29189 44/// /0617 10177 21036 39648 40215 7//// 8//// 333 8//// 8//// 8//// |
| 2009-05-29T21:00 | 60 | 15 | 14.3 | -1.7 | 965 | 1022 | 29219 44/// /0615 10143 21017 39646 40220 7//// 8//// 333 8//// 8//// 8//// |
| 2009-05-30T00:00 | 40 | 7 | 11.3 | 2.3 | 963 | 1021 | 30009 44/// /0407 10113 20023 39634 40214 7//// 8//// 333 8//// 8//// 8//// |
| 2009-05-30T03:00 | 40 | 9 | 9.5 | 3.3 | 962 | 1020 | 30039 44/// /0409 10095 20033 39619 40202 7//// 8//// 333 8//// 8//// 8//// |
| 2009-05-30T06:00 | 40 | 8 | 10.8 | 3.9 | 962 | 1020 | 30069 44/// /0408 10108 20039 39620 40200 7//// 8//// 333 8//// 8//// 8//// |
| 2009-05-30T09:00 | 40 | 9 | 15.6 | 5.3 | 962 | 1019 | 30099 44/// /0409 10156 20053 39617 40187 7//// 8//// 333 8//// 8//// 8//// |
| 2009-05-30T12:00 | 40 | 5 | 19.0 | 7.6 | 961 | 1017 | 30129 44/// /0405 10190 20076 39611 40173 7//// 8//// 333 8//// 8//// 8//// |
| 2009-05-30T15:00 | 30 | 8 | 19.0 | 6.9 | 960 | 1017 | 30159 44/// /0308 10190 20069 39605 40167 7//// 8//// 333 8//// 8//// 8//// |
| 2009-05-30T18:00 | 50 | 6 | 18.3 | 7.3 | 960 | 1016 | 30189 44/// /0506 10183 20073 39599 40162 7//// 8//// 333 8//// 8//// 8//// |
| 2009-05-30T21:00 | 210 | 2 | 14.1 | 9.6 | 961 | 1018 | 30219 44/// /2102 10141 20096 39611 40184 7//// 8//// 333 8//// 8//// 8//// |
| 2009-05-31T00:00 | 70 | 3 | 10.7 | 7.4 | 961 | 1019 | 31009 44/// /0703 10107 20074 39609 40189 7//// 8//// 333 8//// 8//// 8//// |
| 2009-05-31T03:00 | 240 | 2 | 7.4 | 6.5 | 961 | 1020 | 31039 44/// /2402 10074 20065 39609 40196 7//// 8//// 333 8//// 8//// 8//// |
| 2009-05-31T06:00 | 220 | 1 | 9.2 | 7.4 | 961 | 1019 | 31069 44/// /2201 10092 20074 39611 40194 7//// 8//// 333 8//// 8//// 8//// |
| 2009-05-31T09:00 | 30 | 3 | 16.0 | 9.5 | 961 | 1018 | 31099 44/// /0303 10160 20095 39607 40175 7//// 8//// 333 8//// 8//// 8//// |
| 2009-05-31T12:00 | 40 | 10 | 19.2 | 8.3 | 960 | 1016 | 31129 44/// /0410 10192 20083 39599 40160 7//// 8//// 333 8//// 8//// 8//// |
| 2009-05-31T15:00 | 70 | 12 | 20.2 | 7.1 | 959 | 1015 | 31159 44/// /0712 10202 20071 39592 40151 7//// 8//// 333 8//// 8//// 8//// |
| 2009-05-31T18:00 | 50 | 10 | 18.3 | 6.8 | 959 | 1015 | 31189 44/// /0510 10183 20068 39591 40154 7//// 8//// 333 8//// 8//// 8//// |
| 2009-05-31T21:00 | 40 | 4 | 14.1 | 6.2 | 960 | 1017 | 31219 44/// /0404 10141 20062 39600 40172 7//// 8//// 333 8//// 8//// 8//// |
